sensor_id;sensor_type;location;lat;lon;timestamp;P1;durP1;ratioP1;P2;durP2;ratioP2
16612;SDS011;8419;52.358;9.752;2023-06-24T00:02:31;7.28;;;5.53;;
16612;SDS011;8419;52.358;9.752;2023-06-24T00:05:18;8.55;;;6.07;;
16612;SDS011;8419;52.358;9.752;2023-06-24T00:08:04;8.85;;;5.70;;
16612;SDS011;8419;52.358;9.752;2023-06-24T00:10:51;9.57;;;5.75;;
16612;SDS011;8419;52.358;9.752;2023-06-24T00:13:37;7.12;;;5.20;;
16612;SDS011;8419;52.358;9.752;2023-06-24T00:16:22;7.85;;;5.68;;
16612;SDS011;8419;52.358;9.752;2023-06-24T00:19:11;7.65;;;5.57;;
16612;SDS011;8419;52.358;9.752;2023-06-24T00:21:57;9.75;;;6.12;;
16612;SDS011;8419;52.358;9.752;2023-06-24T00:24:47;9.38;;;5.93;;
16612;SDS011;8419;52.358;9.752;2023-06-24T00:27:33;12.35;;;5.62;;
16612;SDS011;8419;52.358;9.752;2023-06-24T00:30:18;9.77;;;6.15;;
16612;SDS011;8419;52.358;9.752;2023-06-24T00:33:03;9.75;;;6.07;;
16612;SDS011;8419;52.358;9.752;2023-06-24T00:35:53;8.82;;;6.10;;
16612;SDS011;8419;52.358;9.752;2023-06-24T00:38:41;6.68;;;5.87;;
16612;SDS011;8419;52.358;9.752;2023-06-24T00:41:26;8.18;;;5.70;;
16612;SDS011;8419;52.358;9.752;2023-06-24T00:44:12;6.40;;;5.40;;
16612;SDS011;8419;52.358;9.752;2023-06-24T00:46:58;9.45;;;5.25;;
16612;SDS011;8419;52.358;9.752;2023-06-24T00:49:44;6.03;;;5.30;;
16612;SDS011;8419;52.358;9.752;2023-06-24T00:52:29;7.65;;;5.97;;
16612;SDS011;8419;52.358;9.752;2023-06-24T00:55:15;6.70;;;5.68;;
16612;SDS011;8419;52.358;9.752;2023-06-24T00:58:08;8.48;;;5.62;;
16612;SDS011;8419;52.358;9.752;2023-06-24T01:00:53;5.65;;;4.65;;
16612;SDS011;8419;52.358;9.752;2023-06-24T01:03:41;9.15;;;5.60;;
16612;SDS011;8419;52.358;9.752;2023-06-24T01:06:27;6.50;;;5.60;;
16612;SDS011;8419;52.358;9.752;2023-06-24T01:09:13;8.70;;;5.40;;
16612;SDS011;8419;52.358;9.752;2023-06-24T01:12:00;7.93;;;5.05;;
16612;SDS011;8419;52.358;9.752;2023-06-24T01:14:45;8.68;;;5.60;;
16612;SDS011;8419;52.358;9.752;2023-06-24T01:17:31;10.38;;;5.47;;
16612;SDS011;8419;52.358;9.752;2023-06-24T01:20:21;5.70;;;5.10;;
16612;SDS011;8419;52.358;9.752;2023-06-24T01:23:28;8.27;;;5.47;;
16612;SDS011;8419;52.358;9.752;2023-06-24T01:26:32;10.60;;;5.15;;
16612;SDS011;8419;52.358;9.752;2023-06-24T01:29:38;6.25;;;4.60;;
16612;SDS011;8419;52.358;9.752;2023-06-24T01:32:37;5.20;;;4.62;;
16612;SDS011;8419;52.358;9.752;2023-06-24T01:35:30;6.03;;;5.15;;
16612;SDS011;8419;52.358;9.752;2023-06-24T01:38:20;7.45;;;5.18;;
16612;SDS011;8419;52.358;9.752;2023-06-24T01:41:09;9.02;;;5.37;;
16612;SDS011;8419;52.358;9.752;2023-06-24T01:43:58;6.30;;;4.93;;
16612;SDS011;8419;52.358;9.752;2023-06-24T01:46:46;8.10;;;4.95;;
16612;SDS011;8419;52.358;9.752;2023-06-24T01:49:36;5.95;;;5.10;;
16612;SDS011;8419;52.358;9.752;2023-06-24T01:52:24;7.25;;;5.32;;
16612;SDS011;8419;52.358;9.752;2023-06-24T01:55:16;6.20;;;5.07;;
16612;SDS011;8419;52.358;9.752;2023-06-24T01:58:04;8.07;;;5.32;;
16612;SDS011;8419;52.358;9.752;2023-06-24T02:00:51;7.80;;;5.30;;
16612;SDS011;8419;52.358;9.752;2023-06-24T02:03:38;6.00;;;4.78;;
16612;SDS011;8419;52.358;9.752;2023-06-24T02:06:25;8.38;;;5.10;;
16612;SDS011;8419;52.358;9.752;2023-06-24T02:09:13;13.95;;;5.95;;
16612;SDS011;8419;52.358;9.752;2023-06-24T02:12:03;7.22;;;5.12;;
16612;SDS011;8419;52.358;9.752;2023-06-24T02:14:52;9.48;;;5.32;;
16612;SDS011;8419;52.358;9.752;2023-06-24T02:17:38;8.13;;;5.35;;
16612;SDS011;8419;52.358;9.752;2023-06-24T02:20:24;7.25;;;5.32;;
16612;SDS011;8419;52.358;9.752;2023-06-24T02:23:11;6.37;;;4.87;;
16612;SDS011;8419;52.358;9.752;2023-06-24T02:25:58;6.20;;;5.15;;
16612;SDS011;8419;52.358;9.752;2023-06-24T02:28:46;8.52;;;5.53;;
16612;SDS011;8419;52.358;9.752;2023-06-24T02:31:33;8.48;;;5.12;;
16612;SDS011;8419;52.358;9.752;2023-06-24T02:34:19;6.62;;;5.37;;
16612;SDS011;8419;52.358;9.752;2023-06-24T02:37:05;9.23;;;5.50;;
16612;SDS011;8419;52.358;9.752;2023-06-24T02:39:50;9.20;;;5.00;;
16612;SDS011;8419;52.358;9.752;2023-06-24T02:42:36;10.23;;;4.72;;
16612;SDS011;8419;52.358;9.752;2023-06-24T02:45:21;6.90;;;5.12;;
16612;SDS011;8419;52.358;9.752;2023-06-24T02:48:08;5.78;;;5.12;;
16612;SDS011;8419;52.358;9.752;2023-06-24T02:50:54;5.75;;;4.60;;
16612;SDS011;8419;52.358;9.752;2023-06-24T02:53:40;7.10;;;4.93;;
16612;SDS011;8419;52.358;9.752;2023-06-24T02:56:27;8.93;;;5.55;;
16612;SDS011;8419;52.358;9.752;2023-06-24T02:59:12;6.43;;;5.07;;
16612;SDS011;8419;52.358;9.752;2023-06-24T03:01:58;6.47;;;5.15;;
16612;SDS011;8419;52.358;9.752;2023-06-24T03:04:43;7.90;;;5.15;;
16612;SDS011;8419;52.358;9.752;2023-06-24T03:07:30;7.43;;;5.10;;
16612;SDS011;8419;52.358;9.752;2023-06-24T03:10:19;7.12;;;5.30;;
16612;SDS011;8419;52.358;9.752;2023-06-24T03:13:06;6.70;;;5.65;;
16612;SDS011;8419;52.358;9.752;2023-06-24T03:15:52;8.23;;;5.60;;
16612;SDS011;8419;52.358;9.752;2023-06-24T03:18:40;7.93;;;5.43;;
16612;SDS011;8419;52.358;9.752;2023-06-24T03:21:26;7.15;;;4.65;;
16612;SDS011;8419;52.358;9.752;2023-06-24T03:24:12;9.00;;;5.80;;
16612;SDS011;8419;52.358;9.752;2023-06-24T03:26:57;10.88;;;5.18;;
16612;SDS011;8419;52.358;9.752;2023-06-24T03:29:42;7.07;;;4.90;;
16612;SDS011;8419;52.358;9.752;2023-06-24T03:32:28;6.95;;;4.72;;
16612;SDS011;8419;52.358;9.752;2023-06-24T03:35:13;6.82;;;4.80;;
16612;SDS011;8419;52.358;9.752;2023-06-24T03:37:59;6.68;;;5.03;;
16612;SDS011;8419;52.358;9.752;2023-06-24T03:40:44;8.80;;;4.80;;
16612;SDS011;8419;52.358;9.752;2023-06-24T03:43:30;7.75;;;5.00;;
16612;SDS011;8419;52.358;9.752;2023-06-24T03:46:15;9.52;;;5.70;;
16612;SDS011;8419;52.358;9.752;2023-06-24T03:49:01;8.00;;;4.82;;
16612;SDS011;8419;52.358;9.752;2023-06-24T03:51:46;12.35;;;5.30;;
16612;SDS011;8419;52.358;9.752;2023-06-24T03:54:32;9.43;;;4.93;;
16612;SDS011;8419;52.358;9.752;2023-06-24T03:57:17;7.90;;;5.20;;
16612;SDS011;8419;52.358;9.752;2023-06-24T04:00:03;7.18;;;4.35;;
16612;SDS011;8419;52.358;9.752;2023-06-24T04:02:56;6.43;;;5.10;;
16612;SDS011;8419;52.358;9.752;2023-06-24T04:05:45;5.45;;;4.80;;
16612;SDS011;8419;52.358;9.752;2023-06-24T04:08:30;9.30;;;4.57;;
16612;SDS011;8419;52.358;9.752;2023-06-24T04:11:16;5.70;;;4.65;;
16612;SDS011;8419;52.358;9.752;2023-06-24T04:14:01;7.10;;;5.12;;
16612;SDS011;8419;52.358;9.752;2023-06-24T04:16:50;4.90;;;4.37;;
16612;SDS011;8419;52.358;9.752;2023-06-24T04:19:36;5.47;;;4.43;;
16612;SDS011;8419;52.358;9.752;2023-06-24T04:22:23;11.90;;;4.65;;
16612;SDS011;8419;52.358;9.752;2023-06-24T04:25:10;5.53;;;4.82;;
16612;SDS011;8419;52.358;9.752;2023-06-24T04:27:56;7.32;;;4.80;;
16612;SDS011;8419;52.358;9.752;2023-06-24T04:30:41;9.35;;;4.57;;
16612;SDS011;8419;52.358;9.752;2023-06-24T04:33:27;5.97;;;5.07;;
16612;SDS011;8419;52.358;9.752;2023-06-24T04:36:12;5.85;;;4.60;;
16612;SDS011;8419;52.358;9.752;2023-06-24T04:38:58;7.75;;;5.50;;
16612;SDS011;8419;52.358;9.752;2023-06-24T04:41:44;9.15;;;5.10;;
16612;SDS011;8419;52.358;9.752;2023-06-24T04:44:31;6.40;;;5.37;;
16612;SDS011;8419;52.358;9.752;2023-06-24T04:47:16;8.23;;;5.28;;
16612;SDS011;8419;52.358;9.752;2023-06-24T04:50:02;8.13;;;5.43;;
16612;SDS011;8419;52.358;9.752;2023-06-24T04:52:52;6.70;;;5.50;;
16612;SDS011;8419;52.358;9.752;2023-06-24T04:55:40;7.22;;;5.87;;
16612;SDS011;8419;52.358;9.752;2023-06-24T04:58:25;8.13;;;5.05;;
16612;SDS011;8419;52.358;9.752;2023-06-24T05:01:11;6.00;;;5.20;;
16612;SDS011;8419;52.358;9.752;2023-06-24T05:03:58;9.93;;;5.70;;
16612;SDS011;8419;52.358;9.752;2023-06-24T05:06:43;7.07;;;5.82;;
16612;SDS011;8419;52.358;9.752;2023-06-24T05:09:30;7.40;;;5.10;;
16612;SDS011;8419;52.358;9.752;2023-06-24T05:12:15;8.10;;;5.50;;
16612;SDS011;8419;52.358;9.752;2023-06-24T05:15:01;7.15;;;5.53;;
16612;SDS011;8419;52.358;9.752;2023-06-24T05:17:47;7.40;;;5.37;;
16612;SDS011;8419;52.358;9.752;2023-06-24T05:20:32;8.02;;;5.50;;
16612;SDS011;8419;52.358;9.752;2023-06-24T05:23:18;8.18;;;5.53;;
16612;SDS011;8419;52.358;9.752;2023-06-24T05:26:03;9.13;;;5.70;;
16612;SDS011;8419;52.358;9.752;2023-06-24T05:28:49;8.45;;;5.68;;
16612;SDS011;8419;52.358;9.752;2023-06-24T05:31:34;7.47;;;5.35;;
16612;SDS011;8419;52.358;9.752;2023-06-24T05:34:19;8.30;;;5.75;;
16612;SDS011;8419;52.358;9.752;2023-06-24T05:37:04;9.07;;;5.32;;
16612;SDS011;8419;52.358;9.752;2023-06-24T05:39:50;10.50;;;5.82;;
16612;SDS011;8419;52.358;9.752;2023-06-24T05:42:35;10.07;;;6.18;;
16612;SDS011;8419;52.358;9.752;2023-06-24T05:45:20;8.85;;;6.28;;
16612;SDS011;8419;52.358;9.752;2023-06-24T05:48:06;9.38;;;6.25;;
16612;SDS011;8419;52.358;9.752;2023-06-24T05:50:51;11.27;;;6.20;;
16612;SDS011;8419;52.358;9.752;2023-06-24T05:53:36;8.68;;;5.43;;
16612;SDS011;8419;52.358;9.752;2023-06-24T05:56:22;8.02;;;5.70;;
16612;SDS011;8419;52.358;9.752;2023-06-24T05:59:10;10.90;;;6.22;;
16612;SDS011;8419;52.358;9.752;2023-06-24T06:01:55;11.07;;;6.95;;
16612;SDS011;8419;52.358;9.752;2023-06-24T06:04:40;12.30;;;6.30;;
16612;SDS011;8419;52.358;9.752;2023-06-24T06:07:26;12.02;;;6.43;;
16612;SDS011;8419;52.358;9.752;2023-06-24T06:10:12;8.98;;;7.05;;
16612;SDS011;8419;52.358;9.752;2023-06-24T06:13:01;8.88;;;6.57;;
16612;SDS011;8419;52.358;9.752;2023-06-24T06:15:46;8.95;;;5.70;;
16612;SDS011;8419;52.358;9.752;2023-06-24T06:18:32;11.43;;;6.90;;
16612;SDS011;8419;52.358;9.752;2023-06-24T06:21:18;8.38;;;6.32;;
16612;SDS011;8419;52.358;9.752;2023-06-24T06:24:03;7.95;;;6.18;;
16612;SDS011;8419;52.358;9.752;2023-06-24T06:26:50;10.68;;;6.07;;
16612;SDS011;8419;52.358;9.752;2023-06-24T06:29:36;12.55;;;5.05;;
16612;SDS011;8419;52.358;9.752;2023-06-24T06:32:23;7.50;;;5.57;;
16612;SDS011;8419;52.358;9.752;2023-06-24T06:35:08;8.50;;;5.30;;
16612;SDS011;8419;52.358;9.752;2023-06-24T06:37:54;6.75;;;5.20;;
16612;SDS011;8419;52.358;9.752;2023-06-24T06:40:39;5.43;;;4.78;;
16612;SDS011;8419;52.358;9.752;2023-06-24T06:43:25;7.68;;;5.70;;
16612;SDS011;8419;52.358;9.752;2023-06-24T06:46:10;8.95;;;5.15;;
16612;SDS011;8419;52.358;9.752;2023-06-24T06:48:56;6.80;;;5.20;;
16612;SDS011;8419;52.358;9.752;2023-06-24T06:51:41;5.78;;;4.95;;
16612;SDS011;8419;52.358;9.752;2023-06-24T06:54:27;8.30;;;5.03;;
16612;SDS011;8419;52.358;9.752;2023-06-24T06:57:12;6.28;;;5.25;;
16612;SDS011;8419;52.358;9.752;2023-06-24T07:00:02;4.97;;;4.47;;
16612;SDS011;8419;52.358;9.752;2023-06-24T07:02:49;6.60;;;4.87;;
16612;SDS011;8419;52.358;9.752;2023-06-24T07:05:35;5.35;;;4.57;;
16612;SDS011;8419;52.358;9.752;2023-06-24T07:08:21;6.95;;;4.07;;
16612;SDS011;8419;52.358;9.752;2023-06-24T07:11:06;7.10;;;3.90;;
16612;SDS011;8419;52.358;9.752;2023-06-24T07:13:52;8.23;;;4.00;;
16612;SDS011;8419;52.358;9.752;2023-06-24T07:16:38;7.30;;;4.32;;
16612;SDS011;8419;52.358;9.752;2023-06-24T07:19:24;5.87;;;3.85;;
16612;SDS011;8419;52.358;9.752;2023-06-24T07:22:10;4.68;;;3.37;;
16612;SDS011;8419;52.358;9.752;2023-06-24T07:24:55;4.82;;;3.37;;
16612;SDS011;8419;52.358;9.752;2023-06-24T07:27:41;5.22;;;3.80;;
16612;SDS011;8419;52.358;9.752;2023-06-24T07:30:27;5.47;;;3.72;;
16612;SDS011;8419;52.358;9.752;2023-06-24T07:33:14;8.38;;;4.37;;
16612;SDS011;8419;52.358;9.752;2023-06-24T07:35:59;4.57;;;3.90;;
16612;SDS011;8419;52.358;9.752;2023-06-24T07:38:45;5.72;;;4.15;;
16612;SDS011;8419;52.358;9.752;2023-06-24T07:41:33;6.78;;;3.47;;
16612;SDS011;8419;52.358;9.752;2023-06-24T07:44:18;5.07;;;3.50;;
16612;SDS011;8419;52.358;9.752;2023-06-24T07:47:04;4.32;;;3.17;;
16612;SDS011;8419;52.358;9.752;2023-06-24T07:49:53;4.72;;;3.37;;
16612;SDS011;8419;52.358;9.752;2023-06-24T07:52:40;5.22;;;3.20;;
16612;SDS011;8419;52.358;9.752;2023-06-24T07:55:26;4.57;;;3.87;;
16612;SDS011;8419;52.358;9.752;2023-06-24T07:58:12;3.92;;;3.22;;
16612;SDS011;8419;52.358;9.752;2023-06-24T08:01:03;5.72;;;3.20;;
16612;SDS011;8419;52.358;9.752;2023-06-24T08:03:50;6.00;;;3.47;;
16612;SDS011;8419;52.358;9.752;2023-06-24T08:06:36;5.25;;;3.53;;
16612;SDS011;8419;52.358;9.752;2023-06-24T08:09:22;3.95;;;3.35;;
16612;SDS011;8419;52.358;9.752;2023-06-24T08:12:10;5.80;;;3.60;;
16612;SDS011;8419;52.358;9.752;2023-06-24T08:14:55;5.90;;;3.47;;
16612;SDS011;8419;52.358;9.752;2023-06-24T08:17:41;4.15;;;3.08;;
16612;SDS011;8419;52.358;9.752;2023-06-24T08:20:26;9.10;;;3.28;;
16612;SDS011;8419;52.358;9.752;2023-06-24T08:23:13;7.72;;;3.05;;
16612;SDS011;8419;52.358;9.752;2023-06-24T08:25:58;4.40;;;2.92;;
16612;SDS011;8419;52.358;9.752;2023-06-24T08:28:46;5.53;;;3.12;;
16612;SDS011;8419;52.358;9.752;2023-06-24T08:31:32;5.93;;;3.35;;
16612;SDS011;8419;52.358;9.752;2023-06-24T08:34:17;5.97;;;3.33;;
16612;SDS011;8419;52.358;9.752;2023-06-24T08:37:03;4.00;;;3.10;;
16612;SDS011;8419;52.358;9.752;2023-06-24T08:39:49;2.33;;;2.12;;
16612;SDS011;8419;52.358;9.752;2023-06-24T08:42:34;3.20;;;2.90;;
16612;SDS011;8419;52.358;9.752;2023-06-24T08:45:20;3.15;;;2.80;;
16612;SDS011;8419;52.358;9.752;2023-06-24T08:48:05;2.92;;;2.55;;
16612;SDS011;8419;52.358;9.752;2023-06-24T08:50:52;4.10;;;2.83;;
16612;SDS011;8419;52.358;9.752;2023-06-24T08:53:42;3.60;;;2.72;;
16612;SDS011;8419;52.358;9.752;2023-06-24T08:56:31;3.30;;;2.95;;
16612;SDS011;8419;52.358;9.752;2023-06-24T08:59:17;4.78;;;3.00;;
16612;SDS011;8419;52.358;9.752;2023-06-24T09:02:04;4.95;;;2.72;;
16612;SDS011;8419;52.358;9.752;2023-06-24T09:04:50;4.55;;;3.03;;
16612;SDS011;8419;52.358;9.752;2023-06-24T09:07:36;3.17;;;2.87;;
16612;SDS011;8419;52.358;9.752;2023-06-24T09:10:31;6.15;;;3.20;;
16612;SDS011;8419;52.358;9.752;2023-06-24T09:13:25;5.72;;;3.22;;
16612;SDS011;8419;52.358;9.752;2023-06-24T09:16:19;4.62;;;2.97;;
16612;SDS011;8419;52.358;9.752;2023-06-24T09:19:06;6.47;;;3.47;;
16612;SDS011;8419;52.358;9.752;2023-06-24T09:21:52;3.85;;;3.50;;
16612;SDS011;8419;52.358;9.752;2023-06-24T09:24:37;4.20;;;3.12;;
16612;SDS011;8419;52.358;9.752;2023-06-24T09:27:23;4.47;;;3.30;;
16612;SDS011;8419;52.358;9.752;2023-06-24T09:30:17;4.37;;;2.90;;
16612;SDS011;8419;52.358;9.752;2023-06-24T09:33:04;5.22;;;2.60;;
16612;SDS011;8419;52.358;9.752;2023-06-24T09:35:50;3.53;;;2.78;;
16612;SDS011;8419;52.358;9.752;2023-06-24T09:38:36;4.30;;;2.90;;
16612;SDS011;8419;52.358;9.752;2023-06-24T09:41:22;2.72;;;2.42;;
16612;SDS011;8419;52.358;9.752;2023-06-24T09:44:11;4.53;;;2.65;;
16612;SDS011;8419;52.358;9.752;2023-06-24T09:46:56;4.47;;;3.03;;
16612;SDS011;8419;52.358;9.752;2023-06-24T09:49:42;3.20;;;2.42;;
16612;SDS011;8419;52.358;9.752;2023-06-24T09:52:29;4.05;;;2.33;;
16612;SDS011;8419;52.358;9.752;2023-06-24T09:55:19;3.97;;;2.60;;
16612;SDS011;8419;52.358;9.752;2023-06-24T09:58:06;4.62;;;2.50;;
16612;SDS011;8419;52.358;9.752;2023-06-24T10:00:53;5.62;;;2.60;;
16612;SDS011;8419;52.358;9.752;2023-06-24T10:03:40;6.03;;;2.85;;
16612;SDS011;8419;52.358;9.752;2023-06-24T10:06:27;4.05;;;3.30;;
16612;SDS011;8419;52.358;9.752;2023-06-24T10:09:14;3.92;;;3.20;;
16612;SDS011;8419;52.358;9.752;2023-06-24T10:12:02;4.82;;;2.55;;
16612;SDS011;8419;52.358;9.752;2023-06-24T10:14:52;5.60;;;2.83;;
16612;SDS011;8419;52.358;9.752;2023-06-24T10:17:47;3.30;;;2.60;;
16612;SDS011;8419;52.358;9.752;2023-06-24T10:20:36;3.22;;;2.92;;
16612;SDS011;8419;52.358;9.752;2023-06-24T10:23:22;5.43;;;2.65;;
16612;SDS011;8419;52.358;9.752;2023-06-24T10:26:21;2.92;;;2.40;;
16612;SDS011;8419;52.358;9.752;2023-06-24T10:29:12;6.03;;;2.95;;
16612;SDS011;8419;52.358;9.752;2023-06-24T10:32:01;3.92;;;2.28;;
16612;SDS011;8419;52.358;9.752;2023-06-24T10:34:53;3.85;;;2.37;;
16612;SDS011;8419;52.358;9.752;2023-06-24T10:37:39;5.03;;;3.00;;
16612;SDS011;8419;52.358;9.752;2023-06-24T10:40:38;3.92;;;2.70;;
16612;SDS011;8419;52.358;9.752;2023-06-24T10:43:28;3.67;;;2.17;;
16612;SDS011;8419;52.358;9.752;2023-06-24T10:46:14;3.62;;;2.25;;
16612;SDS011;8419;52.358;9.752;2023-06-24T10:49:00;3.37;;;2.62;;
16612;SDS011;8419;52.358;9.752;2023-06-24T10:51:45;2.67;;;2.30;;
16612;SDS011;8419;52.358;9.752;2023-06-24T10:54:30;3.00;;;2.45;;
16612;SDS011;8419;52.358;9.752;2023-06-24T10:57:17;3.25;;;2.50;;
16612;SDS011;8419;52.358;9.752;2023-06-24T11:00:09;4.85;;;2.60;;
16612;SDS011;8419;52.358;9.752;2023-06-24T11:03:07;2.92;;;2.62;;
16612;SDS011;8419;52.358;9.752;2023-06-24T11:05:57;3.10;;;2.45;;
16612;SDS011;8419;52.358;9.752;2023-06-24T11:08:45;4.70;;;2.55;;
16612;SDS011;8419;52.358;9.752;2023-06-24T11:11:31;2.90;;;2.45;;
16612;SDS011;8419;52.358;9.752;2023-06-24T11:14:16;3.75;;;2.35;;
16612;SDS011;8419;52.358;9.752;2023-06-24T11:17:02;2.37;;;2.17;;
16612;SDS011;8419;52.358;9.752;2023-06-24T11:19:49;3.83;;;2.10;;
16612;SDS011;8419;52.358;9.752;2023-06-24T11:22:37;3.60;;;2.08;;
16612;SDS011;8419;52.358;9.752;2023-06-24T11:25:23;3.50;;;2.25;;
16612;SDS011;8419;52.358;9.752;2023-06-24T11:28:13;3.37;;;2.50;;
16612;SDS011;8419;52.358;9.752;2023-06-24T11:31:06;3.35;;;2.65;;
16612;SDS011;8419;52.358;9.752;2023-06-24T11:33:54;6.07;;;2.58;;
16612;SDS011;8419;52.358;9.752;2023-06-24T11:36:43;2.58;;;2.35;;
16612;SDS011;8419;52.358;9.752;2023-06-24T11:39:29;3.58;;;2.78;;
16612;SDS011;8419;52.358;9.752;2023-06-24T11:42:14;4.35;;;3.15;;
16612;SDS011;8419;52.358;9.752;2023-06-24T11:45:00;3.17;;;2.60;;
16612;SDS011;8419;52.358;9.752;2023-06-24T11:47:47;4.40;;;2.95;;
16612;SDS011;8419;52.358;9.752;2023-06-24T11:50:33;6.35;;;2.17;;
16612;SDS011;8419;52.358;9.752;2023-06-24T11:53:23;3.58;;;2.83;;
16612;SDS011;8419;52.358;9.752;2023-06-24T11:56:15;3.30;;;3.00;;
16612;SDS011;8419;52.358;9.752;2023-06-24T11:59:01;4.50;;;3.17;;
16612;SDS011;8419;52.358;9.752;2023-06-24T12:01:53;6.20;;;2.92;;
16612;SDS011;8419;52.358;9.752;2023-06-24T12:04:43;4.45;;;3.25;;
16612;SDS011;8419;52.358;9.752;2023-06-24T12:07:29;5.20;;;3.08;;
16612;SDS011;8419;52.358;9.752;2023-06-24T12:10:17;2.87;;;2.33;;
16612;SDS011;8419;52.358;9.752;2023-06-24T12:13:03;6.32;;;2.72;;
16612;SDS011;8419;52.358;9.752;2023-06-24T12:15:50;4.18;;;3.22;;
16612;SDS011;8419;52.358;9.752;2023-06-24T12:18:37;3.70;;;2.83;;
16612;SDS011;8419;52.358;9.752;2023-06-24T12:21:22;4.22;;;3.12;;
16612;SDS011;8419;52.358;9.752;2023-06-24T12:24:11;4.70;;;3.45;;
16612;SDS011;8419;52.358;9.752;2023-06-24T12:26:57;3.42;;;3.12;;
16612;SDS011;8419;52.358;9.752;2023-06-24T12:29:44;3.80;;;2.92;;
16612;SDS011;8419;52.358;9.752;2023-06-24T12:32:29;4.72;;;3.08;;
16612;SDS011;8419;52.358;9.752;2023-06-24T12:35:14;4.05;;;3.17;;
16612;SDS011;8419;52.358;9.752;2023-06-24T12:38:00;4.18;;;3.28;;
16612;SDS011;8419;52.358;9.752;2023-06-24T12:40:46;3.55;;;2.60;;
16612;SDS011;8419;52.358;9.752;2023-06-24T12:43:32;3.75;;;3.15;;
16612;SDS011;8419;52.358;9.752;2023-06-24T12:46:18;3.20;;;2.90;;
16612;SDS011;8419;52.358;9.752;2023-06-24T12:49:03;3.80;;;2.62;;
16612;SDS011;8419;52.358;9.752;2023-06-24T12:51:48;3.22;;;2.92;;
16612;SDS011;8419;52.358;9.752;2023-06-24T12:54:34;4.43;;;3.00;;
16612;SDS011;8419;52.358;9.752;2023-06-24T12:57:19;4.57;;;3.03;;
16612;SDS011;8419;52.358;9.752;2023-06-24T13:00:06;5.37;;;3.40;;
16612;SDS011;8419;52.358;9.752;2023-06-24T13:02:53;4.75;;;3.42;;
16612;SDS011;8419;52.358;9.752;2023-06-24T13:05:38;3.87;;;3.40;;
16612;SDS011;8419;52.358;9.752;2023-06-24T13:08:24;4.43;;;3.08;;
16612;SDS011;8419;52.358;9.752;2023-06-24T13:11:12;4.70;;;3.42;;
16612;SDS011;8419;52.358;9.752;2023-06-24T13:13:57;3.92;;;3.37;;
16612;SDS011;8419;52.358;9.752;2023-06-24T13:16:50;4.30;;;2.75;;
16612;SDS011;8419;52.358;9.752;2023-06-24T13:19:42;5.53;;;3.28;;
16612;SDS011;8419;52.358;9.752;2023-06-24T13:22:27;4.07;;;2.97;;
16612;SDS011;8419;52.358;9.752;2023-06-24T13:25:13;5.90;;;3.22;;
16612;SDS011;8419;52.358;9.752;2023-06-24T13:27:58;4.62;;;3.25;;
16612;SDS011;8419;52.358;9.752;2023-06-24T13:30:44;3.58;;;2.90;;
16612;SDS011;8419;52.358;9.752;2023-06-24T13:33:30;3.15;;;2.62;;
16612;SDS011;8419;52.358;9.752;2023-06-24T13:36:27;3.80;;;2.85;;
16612;SDS011;8419;52.358;9.752;2023-06-24T13:39:16;3.25;;;2.50;;
16612;SDS011;8419;52.358;9.752;2023-06-24T13:42:01;3.75;;;2.65;;
16612;SDS011;8419;52.358;9.752;2023-06-24T13:44:49;2.97;;;2.67;;
16612;SDS011;8419;52.358;9.752;2023-06-24T13:47:35;4.47;;;2.97;;
16612;SDS011;8419;52.358;9.752;2023-06-24T13:50:21;3.62;;;3.00;;
16612;SDS011;8419;52.358;9.752;2023-06-24T13:53:07;3.33;;;2.75;;
16612;SDS011;8419;52.358;9.752;2023-06-24T13:55:55;3.85;;;2.95;;
16612;SDS011;8419;52.358;9.752;2023-06-24T13:58:40;3.25;;;2.95;;
16612;SDS011;8419;52.358;9.752;2023-06-24T14:01:26;3.03;;;2.75;;
16612;SDS011;8419;52.358;9.752;2023-06-24T14:04:12;4.03;;;3.15;;
16612;SDS011;8419;52.358;9.752;2023-06-24T14:06:57;7.60;;;3.22;;
16612;SDS011;8419;52.358;9.752;2023-06-24T14:09:42;3.87;;;2.83;;
16612;SDS011;8419;52.358;9.752;2023-06-24T14:12:31;3.00;;;2.75;;
16612;SDS011;8419;52.358;9.752;2023-06-24T14:15:16;3.35;;;3.00;;
16612;SDS011;8419;52.358;9.752;2023-06-24T14:18:01;3.62;;;3.03;;
16612;SDS011;8419;52.358;9.752;2023-06-24T14:20:47;3.50;;;2.87;;
16612;SDS011;8419;52.358;9.752;2023-06-24T14:23:33;4.28;;;3.22;;
16612;SDS011;8419;52.358;9.752;2023-06-24T14:26:20;3.25;;;2.97;;
16612;SDS011;8419;52.358;9.752;2023-06-24T14:29:06;5.30;;;2.78;;
16612;SDS011;8419;52.358;9.752;2023-06-24T14:31:52;2.83;;;2.60;;
16612;SDS011;8419;52.358;9.752;2023-06-24T14:34:38;3.45;;;3.10;;
16612;SDS011;8419;52.358;9.752;2023-06-24T14:37:23;3.35;;;3.05;;
16612;SDS011;8419;52.358;9.752;2023-06-24T14:40:08;3.35;;;2.72;;
16612;SDS011;8419;52.358;9.752;2023-06-24T14:42:54;3.62;;;3.20;;
16612;SDS011;8419;52.358;9.752;2023-06-24T14:45:39;3.50;;;3.20;;
16612;SDS011;8419;52.358;9.752;2023-06-24T14:48:26;5.32;;;2.72;;
16612;SDS011;8419;52.358;9.752;2023-06-24T14:51:11;3.33;;;3.03;;
16612;SDS011;8419;52.358;9.752;2023-06-24T14:53:57;3.72;;;2.92;;
16612;SDS011;8419;52.358;9.752;2023-06-24T14:56:43;4.10;;;3.10;;
16612;SDS011;8419;52.358;9.752;2023-06-24T14:59:31;4.00;;;3.08;;
16612;SDS011;8419;52.358;9.752;2023-06-24T15:02:16;3.00;;;2.72;;
16612;SDS011;8419;52.358;9.752;2023-06-24T15:05:02;2.50;;;2.30;;
16612;SDS011;8419;52.358;9.752;2023-06-24T15:07:48;4.07;;;2.78;;
16612;SDS011;8419;52.358;9.752;2023-06-24T15:10:34;4.05;;;3.00;;
16612;SDS011;8419;52.358;9.752;2023-06-24T15:13:20;3.15;;;2.87;;
16612;SDS011;8419;52.358;9.752;2023-06-24T15:16:05;3.70;;;3.30;;
16612;SDS011;8419;52.358;9.752;2023-06-24T15:18:50;3.80;;;3.40;;
16612;SDS011;8419;52.358;9.752;2023-06-24T15:21:36;3.60;;;3.30;;
16612;SDS011;8419;52.358;9.752;2023-06-24T15:24:21;4.35;;;3.30;;
16612;SDS011;8419;52.358;9.752;2023-06-24T15:27:07;3.95;;;3.20;;
16612;SDS011;8419;52.358;9.752;2023-06-24T15:29:53;4.43;;;3.17;;
16612;SDS011;8419;52.358;9.752;2023-06-24T15:32:39;4.37;;;3.60;;
16612;SDS011;8419;52.358;9.752;2023-06-24T15:35:25;3.72;;;3.08;;
16612;SDS011;8419;52.358;9.752;2023-06-24T15:38:10;4.78;;;3.53;;
16612;SDS011;8419;52.358;9.752;2023-06-24T15:40:55;3.67;;;3.20;;
16612;SDS011;8419;52.358;9.752;2023-06-24T15:43:41;5.15;;;3.87;;
16612;SDS011;8419;52.358;9.752;2023-06-24T15:46:27;3.37;;;3.08;;
16612;SDS011;8419;52.358;9.752;2023-06-24T15:49:14;4.43;;;2.90;;
16612;SDS011;8419;52.358;9.752;2023-06-24T15:52:00;3.15;;;2.80;;
16612;SDS011;8419;52.358;9.752;2023-06-24T15:54:45;3.42;;;3.12;;
16612;SDS011;8419;52.358;9.752;2023-06-24T15:57:31;3.33;;;2.95;;
16612;SDS011;8419;52.358;9.752;2023-06-24T16:00:20;3.62;;;3.25;;
16612;SDS011;8419;52.358;9.752;2023-06-24T16:03:05;4.97;;;3.25;;
16612;SDS011;8419;52.358;9.752;2023-06-24T16:05:50;3.60;;;3.30;;
16612;SDS011;8419;52.358;9.752;2023-06-24T16:08:37;5.37;;;3.47;;
16612;SDS011;8419;52.358;9.752;2023-06-24T16:11:22;6.18;;;3.83;;
16612;SDS011;8419;52.358;9.752;2023-06-24T16:14:08;5.07;;;3.25;;
16612;SDS011;8419;52.358;9.752;2023-06-24T16:16:53;3.78;;;2.90;;
16612;SDS011;8419;52.358;9.752;2023-06-24T16:19:39;5.15;;;3.50;;
16612;SDS011;8419;52.358;9.752;2023-06-24T16:22:24;4.75;;;3.22;;
16612;SDS011;8419;52.358;9.752;2023-06-24T16:25:10;7.03;;;3.47;;
16612;SDS011;8419;52.358;9.752;2023-06-24T16:27:55;4.45;;;3.25;;
16612;SDS011;8419;52.358;9.752;2023-06-24T16:30:41;6.82;;;3.20;;
16612;SDS011;8419;52.358;9.752;2023-06-24T16:33:26;3.75;;;3.25;;
16612;SDS011;8419;52.358;9.752;2023-06-24T16:36:12;4.00;;;3.60;;
16612;SDS011;8419;52.358;9.752;2023-06-24T16:38:57;4.00;;;3.33;;
16612;SDS011;8419;52.358;9.752;2023-06-24T16:41:43;4.07;;;3.28;;
16612;SDS011;8419;52.358;9.752;2023-06-24T16:44:28;3.72;;;3.17;;
16612;SDS011;8419;52.358;9.752;2023-06-24T16:47:17;5.90;;;3.65;;
16612;SDS011;8419;52.358;9.752;2023-06-24T16:50:02;8.93;;;7.93;;
16612;SDS011;8419;52.358;9.752;2023-06-24T16:52:48;5.43;;;4.85;;
16612;SDS011;8419;52.358;9.752;2023-06-24T16:55:33;4.55;;;3.85;;
16612;SDS011;8419;52.358;9.752;2023-06-24T16:58:19;3.78;;;3.30;;
16612;SDS011;8419;52.358;9.752;2023-06-24T17:01:04;4.60;;;3.03;;